Time;durP1;ratioP1;P1;durP2;ratioP2;P2;SDS_P1;SDS_P2;PMS_P1;PMS_P2;Temp;Humidity;BMP_temperature;BMP_pressure;BME280_temperature;BME280_humidity;BME280_pressure;Samples;Min_cycle;Max_cycle;Signal;HPM_P1;HPM_P2
2022/01/30 00:01:30;;;;;;;;;;;;;;;;;;5113904;28;19980;-74
2022/01/30 00:03:56;;;;;;;;;;;;;;;;;;5114137;28;20002;-72
2022/01/30 00:06:21;;;;;;;;;;;;;;;;;;5113725;28;20336;-76
2022/01/30 00:08:48;;;;;;;;;;;;;;;;;;5114175;28;20367;-75
2022/01/30 00:11:18;;;;;;;;;;;;;;;;;;5114091;28;19922;-73
2022/01/30 00:13:44;;;;;;;;;;;;;;;;;;5113966;28;19944;-74
2022/01/30 00:16:10;;;;;;;;;;;;;;;;;;5113880;28;19920;-75
2022/01/30 00:21:59;;;;;;;;;;;;;;;;;;5113843;28;19922;-73
2022/01/30 00:26:31;;;;;;;;;;;;;;;;;;5113558;28;20006;-74
2022/01/30 00:28:57;;;;;;;;;;;;;;;;;;5113788;28;19920;-77
2022/01/30 00:31:24;;;;;;;;;;;;;;;;;;5114071;28;20291;-75
2022/01/30 00:33:50;;;;;;;;;;;;;;;;;;5115342;28;19942;-73
2022/01/30 00:36:15;;;;;;;;;;;;;;;;;;5117591;28;19916;-74
2022/01/30 00:38:41;;;;;;;;;;;;;;;;;;5117755;27;20014;-74
2022/01/30 00:41:07;;;;;;;;;;;;;;;;;;5117569;28;19916;-75
2022/01/30 00:43:33;;;;;;;;;;;;;;;;;;5117540;28;19922;-77
2022/01/30 00:45:58;;;;;;;;;;;;;;;;;;5117587;28;19957;-77
2022/01/30 00:48:24;;;;;;;;;;;;;;;;;;5117467;27;20298;-76
2022/01/30 00:50:49;;;;;;;;;;;;;;;;;;5117488;28;20343;-73
2022/01/30 00:53:17;;;;;;;;;;;;;;;;;;5117460;28;19916;-77
2022/01/30 00:55:43;;;;;;;;;;;;;;;;;;5117279;28;19922;-76
2022/01/30 00:58:08;;;;;;;;;;;;;;;;;;5117340;28;20423;-75
2022/01/30 01:00:34;;;;;;;;;;;;;;;;;;5117280;28;19965;-76
2022/01/30 01:03:00;;;;;;;;;;;;;;;;;;5117287;28;19923;-73
2022/01/30 01:05:26;;;;;;;;;;;;;;;;;;5117197;28;20355;-76
2022/01/30 01:07:53;;;;;;;;;;;;;;;;;;5116875;28;19927;-73
2022/01/30 01:13:08;;;;;;;;;;;;;;;;;;5117136;28;20003;-75
2022/01/30 01:23:36;;;;;;;;;;;;;;;;;;5119902;28;19916;-75
2022/01/30 01:26:01;;;;;;;;;;;;;;;;;;5117562;28;19916;-74
2022/01/30 01:28:27;;;;;;;;;;;;;;;;;;5117040;28;19916;-77
2022/01/30 01:30:53;;;;;;;;;;;;;;;;;;5118467;28;19912;-72
2022/01/30 01:33:20;;;;;;;;;;;;;;;;;;5136504;27;19958;-73
2022/01/30 01:35:46;;;;;;;;;;;;;;;;;;5117337;28;20377;-73
2022/01/30 01:38:14;;;;;;;;;;;;;;;;;;5117103;28;19920;-74
2022/01/30 01:40:40;;;;;;;;;;;;;;;;;;5117645;28;19916;-74
2022/01/30 01:43:06;;;;;;;;;;;;;;;;;;5117037;28;19927;-73
2022/01/30 01:45:38;;;;;;;;;;;;;;;;;;5117629;28;19916;-74
2022/01/30 01:48:10;;;;;;;;;;;;;;;;;;5118453;28;19915;-75
2022/01/30 01:50:40;;;;;;;;;;;;;;;;;;5119699;28;19961;-74
2022/01/30 01:53:08;;;;;;;;;;;;;;;;;;5122140;27;19916;-74
2022/01/30 01:55:33;;;;;;;;;;;;;;;;;;5117619;28;20333;-74
2022/01/30 01:57:59;;;;;;;;;;;;;;;;;;5118048;28;19919;-74
2022/01/30 02:00:24;;;;;;;;;;;;;;;;;;5116648;28;19927;-74
2022/01/30 02:02:50;;;;;;;;;;;;;;;;;;5117176;28;20363;-73
2022/01/30 02:05:15;;;;;;;;;;;;;;;;;;5118746;28;19995;-74
2022/01/30 02:10:21;;;;;;;;;;;;;;;;;;5118733;28;19922;-74
2022/01/30 02:12:51;;;;;;;;;;;;;;;;;;5118017;28;20003;-73
2022/01/30 02:26:02;;;;;;;;;;;;;;;;;;5116142;28;19960;-74
2022/01/30 02:28:30;;;;;;;;;;;;;;;;;;5115785;28;19922;-73
2022/01/30 02:31:03;;;;;;;;;;;;;;;;;;5115746;28;19916;-73
2022/01/30 02:33:28;;;;;;;;;;;;;;;;;;5115840;28;20359;-77
2022/01/30 02:35:54;;;;;;;;;;;;;;;;;;5115606;28;19916;-75
2022/01/30 02:38:22;;;;;;;;;;;;;;;;;;5115613;28;19916;-73
2022/01/30 02:40:50;;;;;;;;;;;;;;;;;;5115513;28;19916;-74
2022/01/30 02:43:20;;;;;;;;;;;;;;;;;;5115412;28;19920;-73
2022/01/30 02:45:58;;;;;;;;;;;;;;;;;;5115476;28;19919;-73
2022/01/30 02:48:31;;;;;;;;;;;;;;;;;;5115719;28;19920;-76
2022/01/30 02:51:09;;;;;;;;;;;;;;;;;;5115090;28;19963;-75
2022/01/30 02:53:39;;;;;;;;;;;;;;;;;;5115226;28;19938;-74
2022/01/30 02:56:05;;;;;;;;;;;;;;;;;;5114564;28;20410;-73
2022/01/30 02:58:30;;;;;;;;;;;;;;;;;;5115108;28;19946;-75
2022/01/30 03:00:55;;;;;;;;;;;;;;;;;;5115182;28;19916;-73
2022/01/30 03:03:21;;;;;;;;;;;;;;;;;;5115537;28;19955;-75
2022/01/30 03:05:46;;;;;;;;;;;;;;;;;;5115455;28;19973;-73
2022/01/30 03:08:12;;;;;;;;;;;;;;;;;;5114817;28;19972;-73
2022/01/30 03:10:37;;;;;;;;;;;;;;;;;;5113538;28;19960;-75
2022/01/30 03:13:02;;;;;;;;;;;;;;;;;;5115040;28;19916;-72
2022/01/30 03:15:28;;;;;;;;;;;;;;;;;;5114707;28;20375;-73
2022/01/30 03:17:53;;;;;;;;;;;;;;;;;;5114539;28;19916;-73
2022/01/30 03:20:19;;;;;;;;;;;;;;;;;;5114555;28;19916;-74
2022/01/30 03:22:44;;;;;;;;;;;;;;;;;;5114566;28;19923;-75
2022/01/30 03:25:09;;;;;;;;;;;;;;;;;;5114533;28;19922;-74
2022/01/30 03:27:35;;;;;;;;;;;;;;;;;;5114372;28;19962;-74
2022/01/30 03:30:06;;;;;;;;;;;;;;;;;;5114476;28;19916;-73
2022/01/30 03:32:31;;;;;;;;;;;;;;;;;;5114441;28;19919;-75
2022/01/30 03:34:57;;;;;;;;;;;;;;;;;;5114419;28;20343;-76
2022/01/30 03:37:22;;;;;;;;;;;;;;;;;;5114354;28;19916;-76
2022/01/30 03:39:48;;;;;;;;;;;;;;;;;;5114330;28;19927;-77
2022/01/30 03:42:13;;;;;;;;;;;;;;;;;;5114181;28;20018;-75
2022/01/30 03:44:39;;;;;;;;;;;;;;;;;;5114268;28;20333;-75
2022/01/30 03:47:04;;;;;;;;;;;;;;;;;;5114284;28;19923;-75
2022/01/30 03:49:31;;;;;;;;;;;;;;;;;;5114437;28;20005;-76
2022/01/30 03:51:56;;;;;;;;;;;;;;;;;;5113993;28;19919;-78
2022/01/30 03:54:22;;;;;;;;;;;;;;;;;;5114164;28;20275;-78
2022/01/30 03:56:47;;;;;;;;;;;;;;;;;;5114166;28;19920;-76
2022/01/30 03:59:13;;;;;;;;;;;;;;;;;;5114101;28;19919;-76
2022/01/30 04:01:38;;;;;;;;;;;;;;;;;;5113905;28;20317;-76
2022/01/30 04:04:04;;;;;;;;;;;;;;;;;;5114025;28;20329;-79
2022/01/30 04:06:29;;;;;;;;;;;;;;;;;;5113812;28;19955;-76
2022/01/30 04:08:55;;;;;;;;;;;;;;;;;;5116044;28;19945;-80
2022/01/30 04:11:20;;;;;;;;;;;;;;;;;;5118277;28;19967;-79
2022/01/30 04:13:46;;;;;;;;;;;;;;;;;;5118183;28;19916;-79
2022/01/30 04:16:11;;;;;;;;;;;;;;;;;;5118096;28;19964;-74
2022/01/30 04:18:37;;;;;;;;;;;;;;;;;;5118399;28;19937;-80
2022/01/30 04:21:02;;;;;;;;;;;;;;;;;;5117992;28;19923;-78
2022/01/30 04:23:28;;;;;;;;;;;;;;;;;;5118165;27;20018;-76
2022/01/30 04:25:53;;;;;;;;;;;;;;;;;;5117918;28;19968;-80
2022/01/30 04:28:19;;;;;;;;;;;;;;;;;;5117866;28;19968;-76
2022/01/30 04:30:45;;;;;;;;;;;;;;;;;;5118098;28;19927;-79
2022/01/30 04:33:11;;;;;;;;;;;;;;;;;;5117926;28;20261;-78
2022/01/30 04:35:37;;;;;;;;;;;;;;;;;;5117698;28;19922;-73
2022/01/30 04:59:44;;;;;;;;;;;;;;;;;;5119339;28;19915;-82
2022/01/30 05:02:38;;;;;;;;;;;;;;;;;;5125613;28;19923;-74
2022/01/30 05:07:33;;;;;;;;;;;;;;;;;;5117913;28;20367;-75
2022/01/30 05:09:58;;;;;;;;;;;;;;;;;;5116619;28;19915;-77
2022/01/30 05:12:30;;;;;;;;;;;;;;;;;;5117643;28;19915;-80
2022/01/30 05:14:55;;;;;;;;;;;;;;;;;;5117746;28;20308;-77
2022/01/30 05:17:21;;;;;;;;;;;;;;;;;;5117795;28;19915;-76
2022/01/30 05:19:46;;;;;;;;;;;;;;;;;;5116934;28;19966;-77
2022/01/30 05:22:12;;;;;;;;;;;;;;;;;;5117209;28;19923;-77
2022/01/30 05:24:37;;;;;;;;;;;;;;;;;;5117614;28;20339;-73
2022/01/30 05:27:03;;;;;;;;;;;;;;;;;;5117509;28;19916;-76
2022/01/30 05:29:29;;;;;;;;;;;;;;;;;;5117283;28;19915;-79
2022/01/30 05:31:54;;;;;;;;;;;;;;;;;;5115977;28;20538;-77
2022/01/30 05:34:20;;;;;;;;;;;;;;;;;;5117028;28;19950;-77
2022/01/30 05:36:45;;;;;;;;;;;;;;;;;;5117151;28;19920;-76
2022/01/30 05:39:11;;;;;;;;;;;;;;;;;;5116990;28;20276;-78
2022/01/30 05:41:36;;;;;;;;;;;;;;;;;;5116778;28;19942;-73
2022/01/30 05:44:15;;;;;;;;;;;;;;;;;;5116798;28;19922;-75
2022/01/30 05:46:52;;;;;;;;;;;;;;;;;;5115460;28;19916;-74
2022/01/30 05:49:17;;;;;;;;;;;;;;;;;;5116717;28;19915;-74
2022/01/30 05:51:43;;;;;;;;;;;;;;;;;;5116416;28;20376;-77
2022/01/30 05:54:08;;;;;;;;;;;;;;;;;;5116687;28;19945;-78
2022/01/30 05:56:34;;;;;;;;;;;;;;;;;;5116457;28;20337;-79
2022/01/30 05:59:00;;;;;;;;;;;;;;;;;;5116598;28;20325;-78
2022/01/30 06:01:26;;;;;;;;;;;;;;;;;;5116396;28;19926;-75
2022/01/30 06:03:51;;;;;;;;;;;;;;;;;;5116268;28;20338;-77
2022/01/30 06:06:16;;;;;;;;;;;;;;;;;;5115774;28;20307;-76
2022/01/30 06:08:46;;;;;;;;;;;;;;;;;;5116369;27;20380;-74
2022/01/30 06:11:12;;;;;;;;;;;;;;;;;;5115962;28;19919;-73
2022/01/30 06:13:37;;;;;;;;;;;;;;;;;;5114477;28;20398;-76
2022/01/30 06:16:03;;;;;;;;;;;;;;;;;;5115711;28;19915;-77
2022/01/30 06:18:28;;;;;;;;;;;;;;;;;;5115718;28;19919;-79
2022/01/30 06:20:54;;;;;;;;;;;;;;;;;;5115687;28;20260;-80
2022/01/30 06:23:22;;;;;;;;;;;;;;;;;;5115713;28;20030;-76
2022/01/30 06:25:50;;;;;;;;;;;;;;;;;;5115141;28;19922;-77
2022/01/30 06:28:16;;;;;;;;;;;;;;;;;;5115493;28;19916;-77
2022/01/30 06:30:41;;;;;;;;;;;;;;;;;;5114767;28;19923;-78
2022/01/30 06:33:07;;;;;;;;;;;;;;;;;;5115358;28;19916;-77
2022/01/30 06:35:32;;;;;;;;;;;;;;;;;;5115576;28;19939;-76
2022/01/30 06:37:57;;;;;;;;;;;;;;;;;;5115388;28;20008;-73
2022/01/30 06:40:23;;;;;;;;;;;;;;;;;;5115280;28;19919;-76
2022/01/30 06:42:49;;;;;;;;;;;;;;;;;;5115249;28;20006;-76
2022/01/30 06:45:18;;;;;;;;;;;;;;;;;;5114545;27;19969;-76
2022/01/30 06:47:43;;;;;;;;;;;;;;;;;;5115136;28;19923;-80
2022/01/30 06:50:09;;;;;;;;;;;;;;;;;;5114649;28;19915;-81
2022/01/30 06:52:35;;;;;;;;;;;;;;;;;;5115023;28;19926;-76
2022/01/30 06:55:00;;;;;;;;;;;;;;;;;;5114771;28;19959;-77
2022/01/30 06:57:26;;;;;;;;;;;;;;;;;;5114826;28;19915;-78
2022/01/30 06:59:51;;;;;;;;;;;;;;;;;;5114811;28;19942;-76
2022/01/30 07:02:16;;;;;;;;;;;;;;;;;;5114386;28;19916;-81
2022/01/30 07:04:42;;;;;;;;;;;;;;;;;;5115174;28;19922;-74
2022/01/30 07:07:07;;;;;;;;;;;;;;;;;;5114451;28;19926;-74
2022/01/30 07:09:33;;;;;;;;;;;;;;;;;;5114482;28;19915;-73
2022/01/30 07:11:59;;;;;;;;;;;;;;;;;;5115275;28;19961;-75
2022/01/30 07:14:24;;;;;;;;;;;;;;;;;;5114669;28;19920;-76
2022/01/30 07:16:49;;;;;;;;;;;;;;;;;;5114421;28;19923;-74
2022/01/30 07:19:15;;;;;;;;;;;;;;;;;;5115652;28;19920;-74
2022/01/30 07:21:40;;;;;;;;;;;;;;;;;;5115561;28;20302;-76
2022/01/30 07:24:09;;;;;;;;;;;;;;;;;;5112343;27;19930;-74
2022/01/30 07:26:34;;;;;;;;;;;;;;;;;;5108860;28;19938;-75
2022/01/30 07:29:00;;;;;;;;;;;;;;;;;;5113816;28;19916;-76
2022/01/30 07:31:25;;;;;;;;;;;;;;;;;;5114490;28;19915;-76
2022/01/30 07:33:51;;;;;;;;;;;;;;;;;;5114423;28;20006;-74
2022/01/30 07:36:16;;;;;;;;;;;;;;;;;;5114389;27;20370;-74
2022/01/30 07:38:42;;;;;;;;;;;;;;;;;;5114423;28;19912;-74
2022/01/30 07:41:08;;;;;;;;;;;;;;;;;;5102979;28;19923;-72
2022/01/30 07:43:45;;;;;;;;;;;;;;;;;;5108403;28;19926;-79
2022/01/30 07:46:10;;;;;;;;;;;;;;;;;;5109819;28;19919;-81
2022/01/30 07:48:36;;;;;;;;;;;;;;;;;;5112310;28;19923;-74
2022/01/30 07:51:01;;;;;;;;;;;;;;;;;;5112778;28;19926;-74
2022/01/30 07:53:27;;;;;;;;;;;;;;;;;;5112743;28;20385;-75
2022/01/30 07:55:54;;;;;;;;;;;;;;;;;;5112456;28;19920;-76
2022/01/30 07:58:23;;;;;;;;;;;;;;;;;;5113592;28;19969;-75
2022/01/30 08:00:49;;;;;;;;;;;;;;;;;;5113650;28;19942;-78
2022/01/30 08:03:14;;;;;;;;;;;;;;;;;;5113361;28;19926;-78
2022/01/30 08:05:40;;;;;;;;;;;;;;;;;;5112152;28;19929;-72
2022/01/30 08:08:05;;;;;;;;;;;;;;;;;;5113936;28;20371;-76
2022/01/30 08:10:31;;;;;;;;;;;;;;;;;;5113862;28;19916;-78
2022/01/30 08:12:56;;;;;;;;;;;;;;;;;;5114125;28;19916;-79
2022/01/30 08:15:22;;;;;;;;;;;;;;;;;;5113870;28;19916;-77
2022/01/30 08:17:48;;;;;;;;;;;;;;;;;;5113915;28;20279;-80
2022/01/30 08:20:14;;;;;;;;;;;;;;;;;;5113851;28;20065;-80
2022/01/30 08:22:44;;;;;;;;;;;;;;;;;;5113796;28;20411;-79
2022/01/30 08:25:09;;;;;;;;;;;;;;;;;;5112419;28;20454;-73
2022/01/30 08:27:34;;;;;;;;;;;;;;;;;;5111512;28;20037;-76
2022/01/30 08:30:00;;;;;;;;;;;;;;;;;;5111115;28;20026;-74
2022/01/30 08:32:25;;;;;;;;;;;;;;;;;;5111227;28;19934;-81
2022/01/30 08:34:52;;;;;;;;;;;;;;;;;;5115316;28;19916;-80
2022/01/30 08:37:17;;;;;;;;;;;;;;;;;;5126348;28;19920;-77
2022/01/30 08:39:43;;;;;;;;;;;;;;;;;;5113019;28;19922;-80
2022/01/30 08:42:08;;;;;;;;;;;;;;;;;;5112837;28;19920;-75
2022/01/30 08:44:33;;;;;;;;;;;;;;;;;;5110658;28;20279;-76
2022/01/30 08:46:59;;;;;;;;;;;;;;;;;;5111296;28;19927;-75
2022/01/30 08:49:25;;;;;;;;;;;;;;;;;;5110214;28;19927;-80
2022/01/30 08:51:50;;;;;;;;;;;;;;;;;;5110398;28;19970;-76
2022/01/30 08:54:15;;;;;;;;;;;;;;;;;;5113245;28;19924;-80
2022/01/30 08:56:41;;;;;;;;;;;;;;;;;;5114291;28;19924;-75
2022/01/30 08:59:06;;;;;;;;;;;;;;;;;;5116446;28;19966;-76
2022/01/30 09:01:33;;;;;;;;;;;;;;;;;;5116575;28;19919;-74
2022/01/30 09:04:03;;;;;;;;;;;;;;;;;;5115400;28;20370;-73
2022/01/30 09:06:28;;;;;;;;;;;;;;;;;;5118827;28;19926;-75
2022/01/30 09:08:57;;;;;;;;;;;;;;;;;;5120163;28;19916;-80
2022/01/30 09:11:22;;;;;;;;;;;;;;;;;;5119929;28;20306;-73
2022/01/30 09:13:48;;;;;;;;;;;;;;;;;;5119355;28;19916;-75
2022/01/30 09:16:13;;;;;;;;;;;;;;;;;;5118711;28;19926;-77
2022/01/30 09:18:38;;;;;;;;;;;;;;;;;;5118657;28;20018;-79
2022/01/30 09:21:04;;;;;;;;;;;;;;;;;;5117137;28;19916;-79
2022/01/30 09:23:29;;;;;;;;;;;;;;;;;;5116805;28;20371;-74
2022/01/30 09:25:55;;;;;;;;;;;;;;;;;;5116335;28;19942;-72
2022/01/30 09:28:21;;;;;;;;;;;;;;;;;;5116343;28;19969;-73
2022/01/30 09:30:46;;;;;;;;;;;;;;;;;;5116718;27;19959;-78
2022/01/30 09:33:11;;;;;;;;;;;;;;;;;;5115446;28;20388;-80
2022/01/30 09:35:37;;;;;;;;;;;;;;;;;;5116626;28;20290;-78
2022/01/30 09:38:02;;;;;;;;;;;;;;;;;;5116535;27;19916;-74
2022/01/30 09:40:28;;;;;;;;;;;;;;;;;;5116014;28;19916;-74
2022/01/30 09:42:55;;;;;;;;;;;;;;;;;;5116194;28;20440;-76
2022/01/30 09:45:22;;;;;;;;;;;;;;;;;;5116467;28;19955;-74
2022/01/30 09:47:48;;;;;;;;;;;;;;;;;;5115862;28;20378;-75
2022/01/30 09:50:16;;;;;;;;;;;;;;;;;;5116888;28;19915;-73
2022/01/30 09:52:41;;;;;;;;;;;;;;;;;;5116655;28;20257;-74
2022/01/30 09:55:08;;;;;;;;;;;;;;;;;;5115948;27;19916;-77
2022/01/30 09:57:35;;;;;;;;;;;;;;;;;;5116479;28;19968;-75
2022/01/30 10:00:02;;;;;;;;;;;;;;;;;;5116447;27;19916;-74
2022/01/30 10:02:28;;;;;;;;;;;;;;;;;;5116387;28;19916;-77
2022/01/30 10:04:53;;;;;;;;;;;;;;;;;;5116490;28;19938;-72
2022/01/30 10:07:21;;;;;;;;;;;;;;;;;;5116630;28;20406;-74
2022/01/30 10:09:49;;;;;;;;;;;;;;;;;;5116693;28;19930;-73
2022/01/30 10:12:23;;;;;;;;;;;;;;;;;;5113668;28;19934;-74
2022/01/30 10:14:49;;;;;;;;;;;;;;;;;;5109655;28;20000;-77
2022/01/30 10:17:26;;;;;;;;;;;;;;;;;;5112893;28;20452;-73
2022/01/30 10:20:03;;;;;;;;;;;;;;;;;;5111891;28;20002;-73
2022/01/30 10:22:29;;;;;;;;;;;;;;;;;;5114779;28;20406;-74
2022/01/30 10:24:54;;;;;;;;;;;;;;;;;;5115632;28;19916;-74
2022/01/30 10:27:24;;;;;;;;;;;;;;;;;;5115870;28;19915;-73
2022/01/30 10:30:00;;;;;;;;;;;;;;;;;;5115976;27;19945;-74
2022/01/30 10:32:26;;;;;;;;;;;;;;;;;;5116315;28;19927;-74
2022/01/30 10:35:00;;;;;;;;;;;;;;;;;;5115261;28;19916;-72
2022/01/30 10:37:25;;;;;;;;;;;;;;;;;;5115550;28;19930;-73
2022/01/30 10:39:56;;;;;;;;;;;;;;;;;;5115550;28;19916;-73
2022/01/30 10:42:38;;;;;;;;;;;;;;;;;;5115614;28;19926;-74
2022/01/30 10:45:05;;;;;;;;;;;;;;;;;;5115409;28;19922;-76
2022/01/30 10:47:32;;;;;;;;;;;;;;;;;;5115466;28;19920;-72
2022/01/30 10:49:58;;;;;;;;;;;;;;;;;;5114633;28;19970;-74
2022/01/30 10:52:24;;;;;;;;;;;;;;;;;;5114894;28;19924;-74
2022/01/30 10:54:50;;;;;;;;;;;;;;;;;;5114769;28;19920;-73
2022/01/30 10:57:16;;;;;;;;;;;;;;;;;;5114752;28;20018;-72
2022/01/30 10:59:46;;;;;;;;;;;;;;;;;;5115166;28;19961;-75
2022/01/30 11:02:12;;;;;;;;;;;;;;;;;;5114617;28;20034;-73
2022/01/30 11:04:38;;;;;;;;;;;;;;;;;;5113587;28;19961;-74
2022/01/30 11:07:04;;;;;;;;;;;;;;;;;;5114955;28;20332;-76
2022/01/30 11:09:43;;;;;;;;;;;;;;;;;;5114682;28;19942;-77
2022/01/30 11:12:15;;;;;;;;;;;;;;;;;;5114753;28;19922;-74
2022/01/30 11:17:15;;;;;;;;;;;;;;;;;;5114252;28;19963;-77
2022/01/30 11:19:45;;;;;;;;;;;;;;;;;;5114361;28;19922;-74
2022/01/30 11:22:12;;;;;;;;;;;;;;;;;;5114183;28;19916;-77
2022/01/30 11:24:44;;;;;;;;;;;;;;;;;;5114389;28;19919;-77
2022/01/30 11:27:10;;;;;;;;;;;;;;;;;;5114581;28;19915;-74
2022/01/30 11:29:36;;;;;;;;;;;;;;;;;;5114049;28;20007;-77
2022/01/30 11:32:02;;;;;;;;;;;;;;;;;;5114397;28;19916;-78
2022/01/30 11:34:28;;;;;;;;;;;;;;;;;;5114306;28;19969;-76
2022/01/30 11:36:54;;;;;;;;;;;;;;;;;;5114619;28;19923;-91
2022/01/30 11:39:20;;;;;;;;;;;;;;;;;;5114594;28;19916;-92
2022/01/30 11:42:04;;;;;;;;;;;;;;;;;;5114259;28;19945;-79
2022/01/30 11:44:29;;;;;;;;;;;;;;;;;;5113974;28;19920;-85
2022/01/30 11:47:01;;;;;;;;;;;;;;;;;;5113084;28;19930;-85
2022/01/30 11:49:40;;;;;;;;;;;;;;;;;;5114010;28;20277;-74
2022/01/30 11:52:09;;;;;;;;;;;;;;;;;;5115595;28;20379;-87
2022/01/30 11:54:39;;;;;;;;;;;;;;;;;;5114642;28;19916;-79
2022/01/30 11:57:23;;;;;;;;;;;;;;;;;;5114010;28;19923;-89
2022/01/30 11:59:49;;;;;;;;;;;;;;;;;;5113903;28;19916;-88
2022/01/30 12:02:21;;;;;;;;;;;;;;;;;;5094057;28;20018;-75
2022/01/30 12:05:06;;;;;;;;;;;;;;;;;;5094202;28;19938;-79
2022/01/30 12:07:33;;;;;;;;;;;;;;;;;;5092818;28;19920;-76
2022/01/30 12:10:17;;;;;;;;;;;;;;;;;;5095424;28;19982;-77
2022/01/30 12:12:50;;;;;;;;;;;;;;;;;;5111508;28;19938;-81
2022/01/30 12:15:34;;;;;;;;;;;;;;;;;;5097666;28;20380;-74
2022/01/30 12:18:00;;;;;;;;;;;;;;;;;;5094417;28;19948;-74
2022/01/30 12:20:28;;;;;;;;;;;;;;;;;;5094236;28;20426;-75
2022/01/30 12:22:54;;;;;;;;;;;;;;;;;;5093596;28;19917;-75
2022/01/30 12:25:21;;;;;;;;;;;;;;;;;;5101705;28;19916;-75
2022/01/30 12:27:49;;;;;;;;;;;;;;;;;;5114215;28;19939;-76
2022/01/30 12:30:31;;;;;;;;;;;;;;;;;;5115435;28;19919;-76
2022/01/30 12:32:57;;;;;;;;;;;;;;;;;;5118382;28;19916;-78
2022/01/30 12:35:23;;;;;;;;;;;;;;;;;;5118023;28;20294;-74
2022/01/30 12:37:49;;;;;;;;;;;;;;;;;;5118586;28;19916;-73
2022/01/30 12:40:15;;;;;;;;;;;;;;;;;;5118223;27;19963;-79
2022/01/30 12:42:41;;;;;;;;;;;;;;;;;;5117795;28;19922;-78
2022/01/30 12:45:09;;;;;;;;;;;;;;;;;;5117637;28;20305;-73
2022/01/30 12:47:53;;;;;;;;;;;;;;;;;;5118202;28;19922;-74
2022/01/30 12:50:20;;;;;;;;;;;;;;;;;;5117169;28;19923;-74
2022/01/30 12:52:51;;;;;;;;;;;;;;;;;;5117799;28;19960;-73
2022/01/30 12:55:18;;;;;;;;;;;;;;;;;;5118023;28;19998;-75
2022/01/30 12:57:44;;;;;;;;;;;;;;;;;;5118177;28;19916;-73
2022/01/30 13:00:11;;;;;;;;;;;;;;;;;;5116062;28;19916;-76
2022/01/30 13:02:37;;;;;;;;;;;;;;;;;;5115775;28;19920;-73
2022/01/30 13:05:07;;;;;;;;;;;;;;;;;;5117266;28;20332;-74
2022/01/30 13:07:33;;;;;;;;;;;;;;;;;;5117389;28;19955;-75
2022/01/30 13:10:12;;;;;;;;;;;;;;;;;;5117436;28;19963;-73
2022/01/30 13:12:38;;;;;;;;;;;;;;;;;;5117508;28;19918;-73
2022/01/30 13:15:10;;;;;;;;;;;;;;;;;;5117362;28;19915;-75
2022/01/30 13:17:36;;;;;;;;;;;;;;;;;;5115785;28;19916;-75
2022/01/30 13:20:03;;;;;;;;;;;;;;;;;;5117272;28;19916;-76
2022/01/30 13:22:29;;;;;;;;;;;;;;;;;;5116949;28;19958;-76
2022/01/30 13:24:58;;;;;;;;;;;;;;;;;;5116896;28;19916;-76
2022/01/30 13:27:24;;;;;;;;;;;;;;;;;;5115791;28;20457;-72
2022/01/30 13:29:53;;;;;;;;;;;;;;;;;;5116529;28;20003;-76
2022/01/30 13:32:19;;;;;;;;;;;;;;;;;;5116840;27;19915;-75
2022/01/30 13:34:46;;;;;;;;;;;;;;;;;;5116829;28;19918;-72
2022/01/30 13:37:15;;;;;;;;;;;;;;;;;;5116984;28;20379;-77
2022/01/30 13:39:49;;;;;;;;;;;;;;;;;;5114717;28;19977;-75
2022/01/30 13:45:03;;;;;;;;;;;;;;;;;;5110796;28;21436;-72
2022/01/30 13:47:28;;;;;;;;;;;;;;;;;;5112922;28;19935;-74
2022/01/30 13:49:54;;;;;;;;;;;;;;;;;;5111899;28;19920;-75
2022/01/30 13:52:19;;;;;;;;;;;;;;;;;;5111801;28;19920;-73
2022/01/30 13:54:58;;;;;;;;;;;;;;;;;;5110437;28;19923;-73
2022/01/30 13:57:28;;;;;;;;;;;;;;;;;;5109649;28;19920;-75
2022/01/30 14:00:03;;;;;;;;;;;;;;;;;;5111333;28;19934;-77
2022/01/30 14:02:28;;;;;;;;;;;;;;;;;;5111296;28;20371;-78
2022/01/30 14:04:54;;;;;;;;;;;;;;;;;;5103003;28;19934;-76
2022/01/30 14:07:22;;;;;;;;;;;;;;;;;;5108854;28;19919;-75
2022/01/30 14:09:51;;;;;;;;;;;;;;;;;;5115610;28;19962;-74
2022/01/30 14:12:17;;;;;;;;;;;;;;;;;;5115438;28;19912;-73
2022/01/30 14:14:59;;;;;;;;;;;;;;;;;;5115616;28;19923;-76
2022/01/30 14:17:24;;;;;;;;;;;;;;;;;;5116017;28;20457;-73
2022/01/30 14:20:00;;;;;;;;;;;;;;;;;;5113989;28;20019;-73
2022/01/30 14:22:33;;;;;;;;;;;;;;;;;;5106966;28;19923;-75
2022/01/30 14:25:00;;;;;;;;;;;;;;;;;;5115484;28;20418;-72
2022/01/30 14:27:26;;;;;;;;;;;;;;;;;;5115876;28;19942;-74
2022/01/30 14:29:53;;;;;;;;;;;;;;;;;;5115553;28;20375;-76
2022/01/30 14:32:22;;;;;;;;;;;;;;;;;;5115655;28;19916;-73
2022/01/30 14:34:50;;;;;;;;;;;;;;;;;;5115499;28;19923;-74
2022/01/30 14:37:17;;;;;;;;;;;;;;;;;;5115618;28;19919;-75
2022/01/30 14:39:43;;;;;;;;;;;;;;;;;;5115400;28;19954;-76
2022/01/30 14:42:10;;;;;;;;;;;;;;;;;;5115476;28;19963;-76
2022/01/30 14:44:42;;;;;;;;;;;;;;;;;;5115128;28;19964;-76
2022/01/30 14:47:09;;;;;;;;;;;;;;;;;;5115300;28;20002;-74
2022/01/30 14:49:34;;;;;;;;;;;;;;;;;;5114999;28;19961;-74
2022/01/30 14:52:01;;;;;;;;;;;;;;;;;;5113818;28;19916;-73
2022/01/30 14:54:26;;;;;;;;;;;;;;;;;;5115204;28;20506;-72
2022/01/30 14:56:52;;;;;;;;;;;;;;;;;;5114852;28;19916;-76
2022/01/30 14:59:17;;;;;;;;;;;;;;;;;;5115064;28;19911;-76
2022/01/30 15:01:43;;;;;;;;;;;;;;;;;;5115057;28;19916;-73
2022/01/30 15:04:09;;;;;;;;;;;;;;;;;;5114939;28;20060;-75
2022/01/30 15:06:34;;;;;;;;;;;;;;;;;;5114883;28;19920;-76
2022/01/30 15:09:01;;;;;;;;;;;;;;;;;;5114827;28;19928;-78
2022/01/30 15:11:26;;;;;;;;;;;;;;;;;;5114676;28;19999;-76
2022/01/30 15:13:52;;;;;;;;;;;;;;;;;;5114551;28;19962;-76
2022/01/30 15:16:27;;;;;;;;;;;;;;;;;;5114391;28;19911;-76
2022/01/30 15:18:53;;;;;;;;;;;;;;;;;;5114771;28;19920;-74
2022/01/30 15:21:18;;;;;;;;;;;;;;;;;;5114716;28;20358;-73
2022/01/30 15:23:44;;;;;;;;;;;;;;;;;;5114166;28;19965;-78
2022/01/30 15:26:09;;;;;;;;;;;;;;;;;;5114546;28;19915;-79
2022/01/30 15:28:35;;;;;;;;;;;;;;;;;;5114646;28;20442;-76
2022/01/30 15:31:00;;;;;;;;;;;;;;;;;;5114471;28;19965;-73
2022/01/30 15:33:26;;;;;;;;;;;;;;;;;;5114521;28;19919;-76
2022/01/30 15:35:52;;;;;;;;;;;;;;;;;;5113959;28;19920;-76
2022/01/30 15:38:18;;;;;;;;;;;;;;;;;;5114282;28;19923;-74
2022/01/30 15:40:44;;;;;;;;;;;;;;;;;;5114422;28;19915;-75
2022/01/30 15:43:09;;;;;;;;;;;;;;;;;;5116029;28;19957;-72
2022/01/30 15:51:07;;;;;;;;;;;;;;;;;;5115522;28;19972;-75
2022/01/30 15:53:33;;;;;;;;;;;;;;;;;;5114843;28;20010;-77
2022/01/30 15:55:58;;;;;;;;;;;;;;;;;;5114344;28;19916;-77
2022/01/30 15:58:25;;;;;;;;;;;;;;;;;;5114688;28;19923;-76
2022/01/30 16:00:51;;;;;;;;;;;;;;;;;;5114628;28;19916;-75
2022/01/30 16:03:17;;;;;;;;;;;;;;;;;;5116466;28;20260;-77
2022/01/30 16:05:42;;;;;;;;;;;;;;;;;;5121357;27;19922;-76
2022/01/30 16:08:08;;;;;;;;;;;;;;;;;;5121240;27;19920;-77
2022/01/30 16:10:34;;;;;;;;;;;;;;;;;;5121768;27;19923;-73
2022/01/30 16:15:47;;;;;;;;;;;;;;;;;;5121296;28;19937;-78
2022/01/30 16:18:13;;;;;;;;;;;;;;;;;;5121143;27;19915;-74
2022/01/30 16:20:39;;;;;;;;;;;;;;;;;;5121154;27;19911;-75
2022/01/30 16:23:05;;;;;;;;;;;;;;;;;;5121115;27;19919;-76
2022/01/30 16:25:32;;;;;;;;;;;;;;;;;;5121170;27;19916;-76
2022/01/30 16:27:57;;;;;;;;;;;;;;;;;;5121229;27;20309;-76
2022/01/30 16:30:23;;;;;;;;;;;;;;;;;;5121010;27;19916;-76
2022/01/30 16:32:48;;;;;;;;;;;;;;;;;;5120996;27;19915;-76
2022/01/30 16:35:14;;;;;;;;;;;;;;;;;;5120740;27;19916;-75
2022/01/30 16:37:39;;;;;;;;;;;;;;;;;;5120857;27;19922;-75
2022/01/30 16:40:05;;;;;;;;;;;;;;;;;;5120786;27;19919;-76
2022/01/30 16:42:33;;;;;;;;;;;;;;;;;;5120688;27;19969;-78
2022/01/30 16:45:08;;;;;;;;;;;;;;;;;;5120772;27;20329;-75
2022/01/30 16:47:34;;;;;;;;;;;;;;;;;;5121148;27;20260;-77
2022/01/30 16:49:59;;;;;;;;;;;;;;;;;;5121083;27;19929;-76
2022/01/30 16:52:25;;;;;;;;;;;;;;;;;;5120663;27;19976;-76
2022/01/30 16:54:54;;;;;;;;;;;;;;;;;;5120523;27;19970;-75
2022/01/30 16:57:20;;;;;;;;;;;;;;;;;;5120792;27;19969;-76
2022/01/30 16:59:46;;;;;;;;;;;;;;;;;;5116590;27;20014;-76
2022/01/30 17:02:12;;;;;;;;;;;;;;;;;;5111965;28;20023;-75
2022/01/30 17:04:37;;;;;;;;;;;;;;;;;;5115908;27;19920;-76
2022/01/30 17:07:03;;;;;;;;;;;;;;;;;;5117275;27;20291;-76
2022/01/30 17:09:40;;;;;;;;;;;;;;;;;;5114835;27;19967;-76
2022/01/30 17:12:15;;;;;;;;;;;;;;;;;;5119602;27;20202;-76
2022/01/30 17:14:40;;;;;;;;;;;;;;;;;;5115489;27;19944;-76
2022/01/30 17:17:06;;;;;;;;;;;;;;;;;;5114128;28;19959;-77
2022/01/30 17:19:32;;;;;;;;;;;;;;;;;;5116138;28;19920;-76
2022/01/30 17:21:57;;;;;;;;;;;;;;;;;;5114780;28;20393;-76
2022/01/30 17:24:23;;;;;;;;;;;;;;;;;;5113743;28;19984;-75
2022/01/30 17:26:49;;;;;;;;;;;;;;;;;;5111876;28;19923;-75
2022/01/30 17:29:15;;;;;;;;;;;;;;;;;;5113253;28;19926;-74
2022/01/30 17:31:41;;;;;;;;;;;;;;;;;;5108979;28;19928;-75
2022/01/30 17:34:06;;;;;;;;;;;;;;;;;;5104745;27;20412;-76
2022/01/30 17:36:31;;;;;;;;;;;;;;;;;;5100337;27;19924;-76
2022/01/30 17:38:57;;;;;;;;;;;;;;;;;;5100748;28;19919;-74
2022/01/30 17:41:22;;;;;;;;;;;;;;;;;;5101169;27;19963;-73
2022/01/30 17:43:48;;;;;;;;;;;;;;;;;;5101878;27;19955;-77
2022/01/30 17:46:17;;;;;;;;;;;;;;;;;;5102536;27;19923;-78
2022/01/30 17:48:42;;;;;;;;;;;;;;;;;;5102416;27;19923;-74
2022/01/30 17:51:08;;;;;;;;;;;;;;;;;;5102682;27;19976;-75
2022/01/30 17:53:34;;;;;;;;;;;;;;;;;;5100738;28;19927;-78